createdAt,value
2019-02-16T00:02:01.265Z,6.83
2019-02-16T00:07:09.389Z,6.48
2019-02-16T00:12:18.959Z,8.80
2019-02-16T00:17:27.317Z,6.69
2019-02-16T00:22:35.777Z,7.37
2019-02-16T00:27:43.897Z,6.92
2019-02-16T00:32:52.186Z,5.44
2019-02-16T00:38:00.432Z,6.19
2019-02-16T00:43:08.792Z,6.92
2019-02-16T00:48:16.955Z,6.38
2019-02-16T00:53:25.450Z,6.80
2019-02-16T00:58:33.534Z,6.94
2019-02-16T01:03:41.725Z,7.47
2019-02-16T01:08:55.948Z,6.82
2019-02-16T01:13:58.490Z,6.82
2019-02-16T01:19:06.629Z,6.30
2019-02-16T01:24:15.349Z,6.42
2019-02-16T01:29:23.511Z,6.85
2019-02-16T01:34:32.017Z,6.81
2019-02-16T01:39:40.197Z,8.17
2019-02-16T01:44:49.229Z,6.50
2019-02-16T01:49:57.446Z,7.85
2019-02-16T01:55:05.675Z,7.32
2019-02-16T02:00:13.817Z,7.33
2019-02-16T02:05:22.181Z,10.19
2019-02-16T02:10:30.392Z,8.59
2019-02-16T02:15:39.089Z,7.57
2019-02-16T02:20:47.246Z,10.50
2019-02-16T02:25:55.753Z,9.01
2019-02-16T02:31:03.895Z,7.65
2019-02-16T02:36:12.514Z,8.74
2019-02-16T02:41:20.630Z,7.41
2019-02-16T02:46:29.317Z,7.00
2019-02-16T02:51:37.464Z,7.42
2019-02-16T02:56:45.724Z,7.79
2019-02-16T03:01:53.873Z,8.36
2019-02-16T03:07:02.233Z,7.76
2019-02-16T03:12:10.386Z,7.86
2019-02-16T03:17:18.712Z,8.73
2019-02-16T03:22:26.853Z,7.59
2019-02-16T03:27:35.057Z,8.32
2019-02-16T03:32:43.060Z,8.29
2019-02-16T03:37:51.325Z,7.36
2019-02-16T03:42:59.474Z,8.12
2019-02-16T03:48:07.869Z,7.87
2019-02-16T03:53:16.076Z,7.92
2019-02-16T03:58:24.604Z,7.70
2019-02-16T04:03:33.961Z,7.76
2019-02-16T04:08:42.705Z,6.87
2019-02-16T04:13:50.883Z,7.21
2019-02-16T04:18:59.374Z,7.71
2019-02-16T04:24:07.595Z,7.87
2019-02-16T04:29:16.040Z,7.82
2019-02-16T04:34:24.289Z,8.06
2019-02-16T04:39:32.694Z,8.12
2019-02-16T04:44:40.981Z,7.76
2019-02-16T04:49:49.364Z,9.74
2019-02-16T04:54:57.583Z,8.94
2019-02-16T05:00:05.931Z,6.84
2019-02-16T05:05:14.401Z,8.47
2019-02-16T05:10:22.771Z,7.48
2019-02-16T05:15:31.320Z,7.38
2019-02-16T05:20:39.786Z,9.01
2019-02-16T05:25:47.916Z,6.97
2019-02-16T05:30:56.587Z,8.05
2019-02-16T05:36:04.926Z,7.92
2019-02-16T05:41:13.186Z,7.55
2019-02-16T05:46:21.529Z,6.99
2019-02-16T05:51:30.022Z,7.84
2019-02-16T05:56:38.132Z,7.34
2019-02-16T06:01:53.613Z,7.12
2019-02-16T06:06:54.204Z,7.74
2019-02-16T06:12:02.630Z,7.15
2019-02-16T06:17:10.838Z,8.26
2019-02-16T06:22:19.284Z,7.68
2019-02-16T06:27:27.478Z,7.34
2019-02-16T06:32:36.081Z,7.99
2019-02-16T06:37:44.136Z,8.45
2019-02-16T06:42:52.509Z,8.93
2019-02-16T06:48:00.943Z,7.32
2019-02-16T06:53:13.227Z,8.76
2019-02-16T06:58:16.762Z,8.43
2019-02-16T07:08:33.347Z,7.62
2019-02-16T07:13:41.605Z,8.98
2019-02-16T07:18:49.773Z,7.68
2019-02-16T07:23:58.273Z,7.91
2019-02-16T07:29:06.358Z,7.74
2019-02-16T07:39:22.737Z,8.09
2019-02-16T07:44:31.277Z,7.49
2019-02-16T07:49:39.625Z,7.83
2019-02-16T07:54:50.947Z,7.72
2019-02-16T07:59:49.106Z,8.03
2019-02-16T08:04:57.601Z,8.23
2019-02-16T08:10:06.023Z,7.94
2019-02-16T08:15:14.248Z,8.39
2019-02-16T08:20:22.426Z,10.84
2019-02-16T08:25:30.767Z,8.32
2019-02-16T08:30:38.906Z,8.06
2019-02-16T08:35:47.577Z,8.53
2019-02-16T08:40:55.751Z,8.33
2019-02-16T08:46:04.237Z,8.43
2019-02-16T08:51:12.467Z,9.41
2019-02-16T08:56:21.178Z,9.92
2019-02-16T09:01:29.980Z,9.30
2019-02-16T09:06:38.614Z,9.09
2019-02-16T09:11:47.069Z,9.33
2019-02-16T09:16:55.793Z,10.08
2019-02-16T09:22:04.137Z,10.33
2019-02-16T09:27:12.478Z,10.40
2019-02-16T09:32:20.633Z,11.57
2019-02-16T09:37:29.357Z,10.69
2019-02-16T09:42:37.413Z,9.98
2019-02-16T09:47:45.796Z,11.86
2019-02-16T09:52:54.043Z,11.61
2019-02-16T09:58:02.377Z,11.90
2019-02-16T10:03:10.596Z,10.75
2019-02-16T10:08:19.047Z,11.76
2019-02-16T10:13:27.366Z,12.69
2019-02-16T10:18:35.716Z,11.93
2019-02-16T10:23:43.912Z,14.70
2019-02-16T10:28:52.481Z,13.43
2019-02-16T10:34:00.714Z,17.74
2019-02-16T10:39:08.969Z,16.74
2019-02-16T10:44:17.294Z,16.21
2019-02-16T10:49:25.871Z,16.57
2019-02-16T10:54:34.099Z,17.51
2019-02-16T10:59:42.469Z,15.50
2019-02-16T11:04:51.710Z,17.27
2019-02-16T11:09:59.737Z,16.82
2019-02-16T11:15:07.786Z,18.02
2019-02-16T11:20:16.074Z,18.63
2019-02-16T11:25:24.284Z,19.92
2019-02-16T11:30:32.800Z,18.39
2019-02-16T11:35:41.162Z,18.96
2019-02-16T11:40:49.385Z,20.43
2019-02-16T11:45:57.603Z,20.31
2019-02-16T11:51:05.861Z,17.89
2019-02-16T11:56:14.365Z,20.18
2019-02-16T12:01:22.637Z,21.26
2019-02-16T12:06:31.370Z,20.84
2019-02-16T12:11:39.763Z,22.41
2019-02-16T12:16:48.051Z,21.79
2019-02-16T12:21:56.423Z,17.99
2019-02-16T12:27:04.590Z,22.14
2019-02-16T12:32:06.761Z,21.55
2019-02-16T12:37:14.942Z,21.45
2019-02-16T12:42:23.402Z,21.57
2019-02-16T12:47:31.514Z,20.17
2019-02-16T12:52:39.831Z,20.84
2019-02-16T12:57:48.221Z,19.20
2019-02-16T13:02:56.358Z,20.16
2019-02-16T13:08:04.617Z,19.41
2019-02-16T13:13:13.493Z,19.50
2019-02-16T13:18:22.182Z,20.49
2019-02-16T13:23:31.214Z,18.99
2019-02-16T13:28:40.531Z,17.74
2019-02-16T13:33:49.596Z,20.79
2019-02-16T13:38:58.509Z,18.04
2019-02-16T13:44:07.750Z,19.37
2019-02-16T13:49:17.084Z,18.15
2019-02-16T13:54:25.737Z,21.54
2019-02-16T13:59:34.517Z,19.67
2019-02-16T14:04:42.869Z,20.80
2019-02-16T14:09:51.210Z,19.87
2019-02-16T14:14:59.417Z,20.33
2019-02-16T14:20:07.529Z,20.20
2019-02-16T14:25:16.116Z,21.06
2019-02-16T14:30:24.831Z,20.31
2019-02-16T14:35:33.223Z,21.11
2019-02-16T14:40:41.343Z,21.14
2019-02-16T14:45:49.746Z,20.44
2019-02-16T14:50:58.286Z,20.12
2019-02-16T14:56:06.790Z,20.86
2019-02-16T15:01:19.565Z,21.84
2019-02-16T15:06:22.144Z,22.71
2019-02-16T15:11:30.304Z,22.72
2019-02-16T15:16:38.601Z,24.82
2019-02-16T15:21:46.824Z,22.56
2019-02-16T15:26:55.446Z,24.83
2019-02-16T15:32:03.482Z,24.37
2019-02-16T15:37:12.036Z,24.04
2019-02-16T15:42:20.162Z,26.54
2019-02-16T15:47:28.754Z,22.24
2019-02-16T15:52:36.758Z,24.41
2019-02-16T15:57:45.127Z,26.18
2019-02-16T16:02:53.409Z,25.20
2019-02-16T16:08:01.635Z,22.62
2019-02-16T16:13:01.969Z,22.43
2019-02-16T16:18:10.325Z,23.85
2019-02-16T16:23:18.304Z,27.20
2019-02-16T16:28:26.639Z,24.30
2019-02-16T16:33:34.781Z,24.78
2019-02-16T16:38:43.020Z,26.78
2019-02-16T16:43:51.269Z,25.76
2019-02-16T16:48:59.517Z,25.86
2019-02-16T16:54:07.674Z,26.88
2019-02-16T16:59:15.984Z,26.57
2019-02-16T17:04:24.368Z,27.69
2019-02-16T17:09:33.683Z,25.52
2019-02-16T17:14:41.705Z,41.14
2019-02-16T17:19:49.828Z,35.07
2019-02-16T17:24:57.894Z,30.43
2019-02-16T17:30:06.141Z,29.67
2019-02-16T17:35:14.385Z,26.04
2019-02-16T17:40:22.680Z,26.02
2019-02-16T17:45:30.857Z,28.88
2019-02-16T17:50:39.026Z,29.51
2019-02-16T17:55:47.330Z,34.70
2019-02-16T18:00:55.592Z,35.61
2019-02-16T18:06:03.800Z,32.40
2019-02-16T18:11:12.157Z,29.40
2019-02-16T18:16:20.319Z,28.06
2019-02-16T18:21:28.654Z,28.05
2019-02-16T18:26:36.797Z,34.50
2019-02-16T18:31:45.198Z,32.20
2019-02-16T18:36:53.639Z,43.89
2019-02-16T18:42:02.781Z,28.03
2019-02-16T18:47:12.054Z,35.21
2019-02-16T18:52:21.214Z,29.38
2019-02-16T18:57:32.069Z,28.32
2019-02-16T19:02:30.253Z,26.46
2019-02-16T19:07:39.545Z,30.70
2019-02-16T19:12:47.718Z,32.12
2019-02-16T19:17:55.945Z,40.50
2019-02-16T19:23:04.318Z,35.26
2019-02-16T19:28:12.588Z,29.85
2019-02-16T19:33:21.388Z,28.06
2019-02-16T19:38:29.388Z,28.39
2019-02-16T19:43:37.656Z,28.71
2019-02-16T19:48:45.761Z,32.53
2019-02-16T19:53:54.305Z,33.66
2019-02-16T19:59:02.732Z,29.54
2019-02-16T20:04:10.939Z,67.28
2019-02-16T20:09:19.202Z,49.26
2019-02-16T20:14:27.308Z,31.14
2019-02-16T20:19:35.333Z,29.29
2019-02-16T20:24:43.746Z,31.11
2019-02-16T20:45:17.969Z,47.75
2019-02-16T20:50:25.938Z,52.01
2019-02-16T21:00:42.585Z,30.96
2019-02-16T21:05:50.793Z,31.17
2019-02-16T21:16:07.166Z,32.52
2019-02-16T21:21:15.144Z,36.73
2019-02-16T21:57:13.038Z,32.31
2019-02-16T22:02:21.868Z,29.10
2019-02-16T22:22:54.660Z,28.97
2019-02-16T23:50:19.244Z,36.45
